sensor_id;sensor_type;location;lat;lon;timestamp;P1;durP1;ratioP1;P2;durP2;ratioP2
2406;SDS011;37709;53.480;9.688;2023-05-10T00:01:54;3.27;;;2.47;;
2406;SDS011;37709;53.480;9.688;2023-05-10T00:04:21;2.70;;;2.30;;
2406;SDS011;37709;53.480;9.688;2023-05-10T00:06:49;3.60;;;2.60;;
2406;SDS011;37709;53.480;9.688;2023-05-10T00:09:16;5.97;;;2.73;;
2406;SDS011;37709;53.480;9.688;2023-05-10T00:11:43;3.37;;;2.60;;
2406;SDS011;37709;53.480;9.688;2023-05-10T00:14:11;2.40;;;2.20;;
2406;SDS011;37709;53.480;9.688;2023-05-10T00:16:38;3.03;;;2.67;;
2406;SDS011;37709;53.480;9.688;2023-05-10T00:19:05;3.17;;;2.73;;
2406;SDS011;37709;53.480;9.688;2023-05-10T00:21:33;5.87;;;2.50;;
2406;SDS011;37709;53.480;9.688;2023-05-10T00:24:00;3.00;;;2.70;;
2406;SDS011;37709;53.480;9.688;2023-05-10T00:26:28;2.90;;;2.70;;
2406;SDS011;37709;53.480;9.688;2023-05-10T00:28:56;3.77;;;2.80;;
2406;SDS011;37709;53.480;9.688;2023-05-10T00:31:25;2.60;;;2.40;;
2406;SDS011;37709;53.480;9.688;2023-05-10T00:33:52;2.33;;;2.13;;
2406;SDS011;37709;53.480;9.688;2023-05-10T00:36:20;3.17;;;2.83;;
2406;SDS011;37709;53.480;9.688;2023-05-10T00:38:47;2.53;;;2.33;;
2406;SDS011;37709;53.480;9.688;2023-05-10T00:41:15;4.90;;;2.77;;
2406;SDS011;37709;53.480;9.688;2023-05-10T00:43:44;3.40;;;3.07;;
2406;SDS011;37709;53.480;9.688;2023-05-10T00:46:11;2.90;;;2.70;;
2406;SDS011;37709;53.480;9.688;2023-05-10T00:48:40;3.23;;;2.93;;
2406;SDS011;37709;53.480;9.688;2023-05-10T00:51:08;3.03;;;2.70;;
2406;SDS011;37709;53.480;9.688;2023-05-10T00:53:36;3.80;;;2.90;;
2406;SDS011;37709;53.480;9.688;2023-05-10T00:56:03;2.83;;;2.47;;
2406;SDS011;37709;53.480;9.688;2023-05-10T00:58:32;4.37;;;2.60;;
2406;SDS011;37709;53.480;9.688;2023-05-10T01:00:59;4.80;;;2.87;;
2406;SDS011;37709;53.480;9.688;2023-05-10T01:03:28;3.83;;;2.90;;
2406;SDS011;37709;53.480;9.688;2023-05-10T01:05:56;3.47;;;2.60;;
2406;SDS011;37709;53.480;9.688;2023-05-10T01:08:24;2.97;;;2.77;;
2406;SDS011;37709;53.480;9.688;2023-05-10T01:10:52;4.17;;;3.33;;
2406;SDS011;37709;53.480;9.688;2023-05-10T01:13:32;3.80;;;2.77;;
2406;SDS011;37709;53.480;9.688;2023-05-10T01:16:04;2.80;;;2.60;;
2406;SDS011;37709;53.480;9.688;2023-05-10T01:18:34;4.00;;;2.80;;
2406;SDS011;37709;53.480;9.688;2023-05-10T01:21:11;3.37;;;3.00;;
2406;SDS011;37709;53.480;9.688;2023-05-10T01:26:46;3.13;;;2.83;;
2406;SDS011;37709;53.480;9.688;2023-05-10T01:35:07;3.00;;;2.73;;
2406;SDS011;37709;53.480;9.688;2023-05-10T01:37:46;3.30;;;2.90;;
2406;SDS011;37709;53.480;9.688;2023-05-10T01:40:23;3.30;;;3.00;;
2406;SDS011;37709;53.480;9.688;2023-05-10T01:43:04;3.70;;;2.37;;
2406;SDS011;37709;53.480;9.688;2023-05-10T01:45:39;3.73;;;3.10;;
2406;SDS011;37709;53.480;9.688;2023-05-10T01:48:14;3.27;;;2.97;;
2406;SDS011;37709;53.480;9.688;2023-05-10T01:50:43;3.23;;;2.93;;
2406;SDS011;37709;53.480;9.688;2023-05-10T01:53:12;3.40;;;3.07;;
2406;SDS011;37709;53.480;9.688;2023-05-10T01:55:45;3.00;;;2.80;;
2406;SDS011;37709;53.480;9.688;2023-05-10T01:58:27;4.27;;;3.53;;
2406;SDS011;37709;53.480;9.688;2023-05-10T02:00:57;3.47;;;3.17;;
2406;SDS011;37709;53.480;9.688;2023-05-10T02:03:27;3.57;;;3.27;;
2406;SDS011;37709;53.480;9.688;2023-05-10T02:05:56;4.03;;;3.53;;
2406;SDS011;37709;53.480;9.688;2023-05-10T02:08:24;3.50;;;3.20;;
2406;SDS011;37709;53.480;9.688;2023-05-10T02:10:53;3.17;;;2.97;;
2406;SDS011;37709;53.480;9.688;2023-05-10T02:13:23;4.77;;;4.20;;
2406;SDS011;37709;53.480;9.688;2023-05-10T02:15:52;2.80;;;2.60;;
2406;SDS011;37709;53.480;9.688;2023-05-10T02:18:21;3.93;;;3.53;;
2406;SDS011;37709;53.480;9.688;2023-05-10T02:20:50;3.20;;;2.90;;
2406;SDS011;37709;53.480;9.688;2023-05-10T02:23:20;3.60;;;3.10;;
2406;SDS011;37709;53.480;9.688;2023-05-10T02:25:48;4.13;;;3.60;;
2406;SDS011;37709;53.480;9.688;2023-05-10T02:28:20;4.30;;;3.33;;
2406;SDS011;37709;53.480;9.688;2023-05-10T02:30:50;4.90;;;3.57;;
2406;SDS011;37709;53.480;9.688;2023-05-10T02:33:19;3.43;;;3.17;;
2406;SDS011;37709;53.480;9.688;2023-05-10T02:35:48;3.60;;;3.30;;
2406;SDS011;37709;53.480;9.688;2023-05-10T02:38:18;3.83;;;3.50;;
2406;SDS011;37709;53.480;9.688;2023-05-10T02:40:49;4.10;;;3.60;;
2406;SDS011;37709;53.480;9.688;2023-05-10T02:43:17;3.70;;;3.33;;
2406;SDS011;37709;53.480;9.688;2023-05-10T02:45:47;5.23;;;3.73;;
2406;SDS011;37709;53.480;9.688;2023-05-10T02:48:15;4.77;;;3.63;;
2406;SDS011;37709;53.480;9.688;2023-05-10T02:50:44;3.60;;;3.30;;
2406;SDS011;37709;53.480;9.688;2023-05-10T02:53:15;4.27;;;3.80;;
2406;SDS011;37709;53.480;9.688;2023-05-10T02:55:45;4.70;;;3.80;;
2406;SDS011;37709;53.480;9.688;2023-05-10T02:58:17;3.90;;;3.50;;
2406;SDS011;37709;53.480;9.688;2023-05-10T03:00:46;4.50;;;3.40;;
2406;SDS011;37709;53.480;9.688;2023-05-10T03:03:13;3.77;;;3.47;;
2406;SDS011;37709;53.480;9.688;2023-05-10T03:05:42;3.67;;;3.37;;
2406;SDS011;37709;53.480;9.688;2023-05-10T03:08:09;4.53;;;3.77;;
2406;SDS011;37709;53.480;9.688;2023-05-10T03:10:38;5.83;;;3.83;;
2406;SDS011;37709;53.480;9.688;2023-05-10T03:13:21;5.50;;;3.80;;
2406;SDS011;37709;53.480;9.688;2023-05-10T03:16:03;4.13;;;3.73;;
2406;SDS011;37709;53.480;9.688;2023-05-10T03:21:11;4.73;;;4.13;;
2406;SDS011;37709;53.480;9.688;2023-05-10T03:23:50;4.07;;;3.67;;
2406;SDS011;37709;53.480;9.688;2023-05-10T03:26:24;4.30;;;3.90;;
2406;SDS011;37709;53.480;9.688;2023-05-10T03:29:03;4.20;;;3.77;;
2406;SDS011;37709;53.480;9.688;2023-05-10T03:31:32;3.73;;;3.33;;
2406;SDS011;37709;53.480;9.688;2023-05-10T03:34:00;4.57;;;4.00;;
2406;SDS011;37709;53.480;9.688;2023-05-10T03:36:27;5.30;;;4.40;;
2406;SDS011;37709;53.480;9.688;2023-05-10T03:38:55;4.70;;;3.90;;
2406;SDS011;37709;53.480;9.688;2023-05-10T03:41:23;5.93;;;3.87;;
2406;SDS011;37709;53.480;9.688;2023-05-10T03:43:53;3.83;;;3.17;;
2406;SDS011;37709;53.480;9.688;2023-05-10T03:46:20;3.83;;;3.47;;
2406;SDS011;37709;53.480;9.688;2023-05-10T03:48:47;4.10;;;3.80;;
2406;SDS011;37709;53.480;9.688;2023-05-10T03:51:14;4.83;;;4.43;;
2406;SDS011;37709;53.480;9.688;2023-05-10T03:53:41;3.70;;;3.40;;
2406;SDS011;37709;53.480;9.688;2023-05-10T03:56:08;3.80;;;3.13;;
2406;SDS011;37709;53.480;9.688;2023-05-10T03:58:36;3.97;;;3.57;;
2406;SDS011;37709;53.480;9.688;2023-05-10T04:01:03;4.10;;;3.73;;
2406;SDS011;37709;53.480;9.688;2023-05-10T04:03:30;3.80;;;3.50;;
2406;SDS011;37709;53.480;9.688;2023-05-10T04:05:59;4.40;;;4.00;;
2406;SDS011;37709;53.480;9.688;2023-05-10T04:08:28;3.60;;;3.30;;
2406;SDS011;37709;53.480;9.688;2023-05-10T04:11:06;3.97;;;3.67;;
2406;SDS011;37709;53.480;9.688;2023-05-10T04:13:34;4.27;;;3.87;;
2406;SDS011;37709;53.480;9.688;2023-05-10T04:16:01;4.17;;;3.77;;
2406;SDS011;37709;53.480;9.688;2023-05-10T04:18:29;4.03;;;3.67;;
2406;SDS011;37709;53.480;9.688;2023-05-10T04:20:57;4.37;;;3.97;;
2406;SDS011;37709;53.480;9.688;2023-05-10T04:23:24;4.27;;;3.80;;
2406;SDS011;37709;53.480;9.688;2023-05-10T04:25:51;4.07;;;3.60;;
2406;SDS011;37709;53.480;9.688;2023-05-10T04:28:18;4.10;;;3.70;;
2406;SDS011;37709;53.480;9.688;2023-05-10T04:30:46;4.57;;;4.10;;
2406;SDS011;37709;53.480;9.688;2023-05-10T04:33:13;4.63;;;4.13;;
2406;SDS011;37709;53.480;9.688;2023-05-10T04:35:41;4.10;;;3.80;;
2406;SDS011;37709;53.480;9.688;2023-05-10T04:38:08;4.50;;;4.10;;
2406;SDS011;37709;53.480;9.688;2023-05-10T04:40:36;4.13;;;3.83;;
2406;SDS011;37709;53.480;9.688;2023-05-10T04:43:03;4.40;;;4.03;;
2406;SDS011;37709;53.480;9.688;2023-05-10T04:45:31;6.17;;;4.03;;
2406;SDS011;37709;53.480;9.688;2023-05-10T04:47:58;4.50;;;4.10;;
2406;SDS011;37709;53.480;9.688;2023-05-10T04:50:25;3.77;;;3.47;;
2406;SDS011;37709;53.480;9.688;2023-05-10T04:52:53;4.10;;;3.80;;
2406;SDS011;37709;53.480;9.688;2023-05-10T04:55:20;4.50;;;4.10;;
2406;SDS011;37709;53.480;9.688;2023-05-10T04:57:47;5.67;;;3.80;;
2406;SDS011;37709;53.480;9.688;2023-05-10T05:00:15;4.20;;;3.87;;
2406;SDS011;37709;53.480;9.688;2023-05-10T05:02:44;3.77;;;3.47;;
2406;SDS011;37709;53.480;9.688;2023-05-10T05:05:12;4.80;;;4.33;;
2406;SDS011;37709;53.480;9.688;2023-05-10T05:07:40;5.07;;;3.83;;
2406;SDS011;37709;53.480;9.688;2023-05-10T05:10:07;7.27;;;4.17;;
2406;SDS011;37709;53.480;9.688;2023-05-10T05:12:35;4.67;;;4.00;;
2406;SDS011;37709;53.480;9.688;2023-05-10T05:15:02;4.47;;;3.60;;
2406;SDS011;37709;53.480;9.688;2023-05-10T05:17:30;5.30;;;4.23;;
2406;SDS011;37709;53.480;9.688;2023-05-10T05:19:58;4.73;;;4.23;;
2406;SDS011;37709;53.480;9.688;2023-05-10T05:22:25;4.10;;;3.80;;
2406;SDS011;37709;53.480;9.688;2023-05-10T05:24:55;6.80;;;4.10;;
2406;SDS011;37709;53.480;9.688;2023-05-10T05:27:24;4.80;;;4.27;;
2406;SDS011;37709;53.480;9.688;2023-05-10T05:29:54;4.60;;;3.80;;
2406;SDS011;37709;53.480;9.688;2023-05-10T05:32:22;5.30;;;4.80;;
2406;SDS011;37709;53.480;9.688;2023-05-10T05:34:51;7.20;;;3.93;;
2406;SDS011;37709;53.480;9.688;2023-05-10T05:37:19;5.13;;;4.17;;
2406;SDS011;37709;53.480;9.688;2023-05-10T05:39:48;4.10;;;3.80;;
2406;SDS011;37709;53.480;9.688;2023-05-10T05:42:15;4.57;;;4.17;;
2406;SDS011;37709;53.480;9.688;2023-05-10T05:44:44;4.27;;;3.97;;
2406;SDS011;37709;53.480;9.688;2023-05-10T05:47:12;6.17;;;4.40;;
2406;SDS011;37709;53.480;9.688;2023-05-10T05:49:39;4.07;;;3.67;;
2406;SDS011;37709;53.480;9.688;2023-05-10T05:52:07;4.97;;;4.53;;
2406;SDS011;37709;53.480;9.688;2023-05-10T05:54:34;4.47;;;4.07;;
2406;SDS011;37709;53.480;9.688;2023-05-10T05:57:01;7.67;;;4.53;;
2406;SDS011;37709;53.480;9.688;2023-05-10T05:59:29;4.37;;;3.97;;
2406;SDS011;37709;53.480;9.688;2023-05-10T06:01:56;4.30;;;3.90;;
2406;SDS011;37709;53.480;9.688;2023-05-10T06:04:24;4.03;;;3.63;;
2406;SDS011;37709;53.480;9.688;2023-05-10T06:06:51;4.67;;;4.10;;
2406;SDS011;37709;53.480;9.688;2023-05-10T06:09:19;7.53;;;4.93;;
2406;SDS011;37709;53.480;9.688;2023-05-10T06:11:47;3.33;;;3.03;;
2406;SDS011;37709;53.480;9.688;2023-05-10T06:14:14;4.43;;;3.93;;
2406;SDS011;37709;53.480;9.688;2023-05-10T06:16:41;4.50;;;4.10;;
2406;SDS011;37709;53.480;9.688;2023-05-10T06:19:09;5.03;;;4.20;;
2406;SDS011;37709;53.480;9.688;2023-05-10T06:21:36;5.03;;;3.40;;
2406;SDS011;37709;53.480;9.688;2023-05-10T06:24:03;4.10;;;3.70;;
2406;SDS011;37709;53.480;9.688;2023-05-10T06:26:33;3.90;;;3.50;;
2406;SDS011;37709;53.480;9.688;2023-05-10T06:29:01;4.20;;;3.80;;
2406;SDS011;37709;53.480;9.688;2023-05-10T06:31:28;5.37;;;3.90;;
2406;SDS011;37709;53.480;9.688;2023-05-10T06:33:55;5.17;;;4.20;;
2406;SDS011;37709;53.480;9.688;2023-05-10T06:36:24;3.70;;;3.40;;
2406;SDS011;37709;53.480;9.688;2023-05-10T06:38:53;4.90;;;4.40;;
2406;SDS011;37709;53.480;9.688;2023-05-10T06:41:20;5.07;;;4.53;;
2406;SDS011;37709;53.480;9.688;2023-05-10T06:43:50;5.70;;;4.37;;
2406;SDS011;37709;53.480;9.688;2023-05-10T06:46:18;6.70;;;3.73;;
2406;SDS011;37709;53.480;9.688;2023-05-10T06:48:45;4.87;;;3.93;;
2406;SDS011;37709;53.480;9.688;2023-05-10T06:51:12;4.10;;;3.70;;
2406;SDS011;37709;53.480;9.688;2023-05-10T06:53:40;4.50;;;4.07;;
2406;SDS011;37709;53.480;9.688;2023-05-10T06:56:07;4.03;;;3.53;;
2406;SDS011;37709;53.480;9.688;2023-05-10T06:58:34;6.17;;;4.23;;
2406;SDS011;37709;53.480;9.688;2023-05-10T07:01:03;3.87;;;3.57;;
2406;SDS011;37709;53.480;9.688;2023-05-10T07:03:31;6.23;;;4.17;;
2406;SDS011;37709;53.480;9.688;2023-05-10T07:06:02;4.73;;;4.27;;
2406;SDS011;37709;53.480;9.688;2023-05-10T07:08:30;4.40;;;3.80;;
2406;SDS011;37709;53.480;9.688;2023-05-10T07:11:00;4.53;;;4.13;;
2406;SDS011;37709;53.480;9.688;2023-05-10T07:13:28;9.30;;;3.63;;
2406;SDS011;37709;53.480;9.688;2023-05-10T07:15:55;4.37;;;3.77;;
2406;SDS011;37709;53.480;9.688;2023-05-10T07:18:23;4.93;;;3.63;;
2406;SDS011;37709;53.480;9.688;2023-05-10T07:20:51;4.07;;;3.77;;
2406;SDS011;37709;53.480;9.688;2023-05-10T07:23:19;4.50;;;4.00;;
2406;SDS011;37709;53.480;9.688;2023-05-10T07:25:47;4.17;;;3.77;;
2406;SDS011;37709;53.480;9.688;2023-05-10T07:28:15;4.63;;;4.23;;
2406;SDS011;37709;53.480;9.688;2023-05-10T07:30:43;4.13;;;3.83;;
2406;SDS011;37709;53.480;9.688;2023-05-10T07:33:12;4.00;;;3.60;;
2406;SDS011;37709;53.480;9.688;2023-05-10T07:35:40;8.90;;;4.23;;
2406;SDS011;37709;53.480;9.688;2023-05-10T07:38:07;5.73;;;4.43;;
2406;SDS011;37709;53.480;9.688;2023-05-10T07:40:34;4.70;;;4.30;;
2406;SDS011;37709;53.480;9.688;2023-05-10T07:43:02;5.47;;;4.97;;
2406;SDS011;37709;53.480;9.688;2023-05-10T07:45:29;5.77;;;5.27;;
2406;SDS011;37709;53.480;9.688;2023-05-10T07:47:57;5.60;;;5.10;;
2406;SDS011;37709;53.480;9.688;2023-05-10T07:50:25;7.13;;;5.90;;
2406;SDS011;37709;53.480;9.688;2023-05-10T07:52:52;6.97;;;5.63;;
2406;SDS011;37709;53.480;9.688;2023-05-10T07:55:19;8.10;;;6.00;;
2406;SDS011;37709;53.480;9.688;2023-05-10T07:57:49;7.10;;;6.40;;
2406;SDS011;37709;53.480;9.688;2023-05-10T08:00:17;7.60;;;6.90;;
2406;SDS011;37709;53.480;9.688;2023-05-10T08:02:46;7.33;;;6.63;;
2406;SDS011;37709;53.480;9.688;2023-05-10T08:05:14;7.00;;;6.27;;
2406;SDS011;37709;53.480;9.688;2023-05-10T08:07:42;7.77;;;7.10;;
2406;SDS011;37709;53.480;9.688;2023-05-10T08:10:10;6.90;;;6.30;;
2406;SDS011;37709;53.480;9.688;2023-05-10T08:12:38;6.37;;;5.90;;
2406;SDS011;37709;53.480;9.688;2023-05-10T08:15:05;7.30;;;6.70;;
2406;SDS011;37709;53.480;9.688;2023-05-10T08:17:33;7.93;;;7.20;;
2406;SDS011;37709;53.480;9.688;2023-05-10T08:20:01;9.70;;;8.23;;
2406;SDS011;37709;53.480;9.688;2023-05-10T08:22:28;9.00;;;8.10;;
2406;SDS011;37709;53.480;9.688;2023-05-10T08:24:55;8.57;;;7.87;;
2406;SDS011;37709;53.480;9.688;2023-05-10T08:27:23;8.27;;;7.57;;
2406;SDS011;37709;53.480;9.688;2023-05-10T08:29:51;8.33;;;7.63;;
2406;SDS011;37709;53.480;9.688;2023-05-10T08:32:18;10.20;;;9.30;;
2406;SDS011;37709;53.480;9.688;2023-05-10T08:34:46;9.77;;;8.77;;
2406;SDS011;37709;53.480;9.688;2023-05-10T08:37:13;8.53;;;7.83;;
2406;SDS011;37709;53.480;9.688;2023-05-10T08:39:42;9.27;;;8.40;;
2406;SDS011;37709;53.480;9.688;2023-05-10T08:42:09;9.57;;;8.67;;
2406;SDS011;37709;53.480;9.688;2023-05-10T08:44:37;9.97;;;8.97;;
2406;SDS011;37709;53.480;9.688;2023-05-10T08:47:05;15.80;;;9.40;;
2406;SDS011;37709;53.480;9.688;2023-05-10T08:49:36;9.90;;;9.10;;
2406;SDS011;37709;53.480;9.688;2023-05-10T08:52:04;9.50;;;8.60;;
2406;SDS011;37709;53.480;9.688;2023-05-10T08:54:34;9.13;;;8.33;;
2406;SDS011;37709;53.480;9.688;2023-05-10T08:57:01;9.53;;;8.33;;
2406;SDS011;37709;53.480;9.688;2023-05-10T08:59:29;8.97;;;8.20;;
2406;SDS011;37709;53.480;9.688;2023-05-10T09:01:57;9.13;;;8.33;;
2406;SDS011;37709;53.480;9.688;2023-05-10T09:04:25;9.97;;;9.07;;
2406;SDS011;37709;53.480;9.688;2023-05-10T09:06:53;8.93;;;8.13;;
2406;SDS011;37709;53.480;9.688;2023-05-10T09:09:21;10.33;;;9.43;;
2406;SDS011;37709;53.480;9.688;2023-05-10T09:11:48;11.20;;;10.10;;
2406;SDS011;37709;53.480;9.688;2023-05-10T09:14:16;11.33;;;10.10;;
2406;SDS011;37709;53.480;9.688;2023-05-10T09:16:44;13.40;;;11.00;;
2406;SDS011;37709;53.480;9.688;2023-05-10T09:19:12;14.33;;;11.37;;
2406;SDS011;37709;53.480;9.688;2023-05-10T09:21:40;21.43;;;13.87;;
2406;SDS011;37709;53.480;9.688;2023-05-10T09:24:07;15.60;;;12.70;;
2406;SDS011;37709;53.480;9.688;2023-05-10T09:26:35;17.17;;;11.87;;
2406;SDS011;37709;53.480;9.688;2023-05-10T09:29:12;16.80;;;12.50;;
2406;SDS011;37709;53.480;9.688;2023-05-10T09:31:49;13.77;;;10.67;;
2406;SDS011;37709;53.480;9.688;2023-05-10T09:34:18;18.10;;;13.50;;
2406;SDS011;37709;53.480;9.688;2023-05-10T09:36:50;18.97;;;14.87;;
2406;SDS011;37709;53.480;9.688;2023-05-10T09:39:36;14.27;;;12.77;;
2406;SDS011;37709;53.480;9.688;2023-05-10T09:42:08;21.17;;;14.77;;
2406;SDS011;37709;53.480;9.688;2023-05-10T09:44:36;21.77;;;15.37;;
2406;SDS011;37709;53.480;9.688;2023-05-10T09:47:04;16.77;;;14.60;;
2406;SDS011;37709;53.480;9.688;2023-05-10T09:49:33;24.07;;;16.07;;
2406;SDS011;37709;53.480;9.688;2023-05-10T09:52:02;25.57;;;17.53;;
2406;SDS011;37709;53.480;9.688;2023-05-10T09:54:34;16.47;;;14.40;;
2406;SDS011;37709;53.480;9.688;2023-05-10T09:57:02;31.50;;;16.53;;
2406;SDS011;37709;53.480;9.688;2023-05-10T09:59:32;36.63;;;19.63;;
2406;SDS011;37709;53.480;9.688;2023-05-10T10:02:02;28.50;;;19.20;;
2406;SDS011;37709;53.480;9.688;2023-05-10T10:04:30;26.00;;;17.27;;
2406;SDS011;37709;53.480;9.688;2023-05-10T10:06:59;37.83;;;21.00;;
2406;SDS011;37709;53.480;9.688;2023-05-10T10:09:28;20.10;;;17.23;;
2406;SDS011;37709;53.480;9.688;2023-05-10T10:11:56;30.53;;;19.73;;
2406;SDS011;37709;53.480;9.688;2023-05-10T10:14:24;22.93;;;17.43;;
2406;SDS011;37709;53.480;9.688;2023-05-10T10:16:51;40.87;;;22.07;;
2406;SDS011;37709;53.480;9.688;2023-05-10T10:19:33;24.90;;;17.17;;
2406;SDS011;37709;53.480;9.688;2023-05-10T10:22:04;24.37;;;17.00;;
2406;SDS011;37709;53.480;9.688;2023-05-10T10:24:33;24.17;;;18.27;;
2406;SDS011;37709;53.480;9.688;2023-05-10T10:27:06;18.37;;;14.10;;
2406;SDS011;37709;53.480;9.688;2023-05-10T10:29:52;13.47;;;8.97;;
2406;SDS011;37709;53.480;9.688;2023-05-10T10:35:10;21.67;;;15.80;;
2406;SDS011;37709;53.480;9.688;2023-05-10T10:37:43;15.60;;;12.90;;
2406;SDS011;37709;53.480;9.688;2023-05-10T10:40:25;20.03;;;15.87;;
2406;SDS011;37709;53.480;9.688;2023-05-10T10:46:09;27.00;;;18.70;;
2406;SDS011;37709;53.480;9.688;2023-05-10T10:48:41;30.90;;;19.37;;
2406;SDS011;37709;53.480;9.688;2023-05-10T10:51:15;25.07;;;17.80;;
2406;SDS011;37709;53.480;9.688;2023-05-10T10:53:42;24.67;;;20.17;;
2406;SDS011;37709;53.480;9.688;2023-05-10T10:56:10;21.37;;;17.60;;
2406;SDS011;37709;53.480;9.688;2023-05-10T10:58:42;28.87;;;20.50;;
2406;SDS011;37709;53.480;9.688;2023-05-10T11:01:20;29.17;;;20.70;;
2406;SDS011;37709;53.480;9.688;2023-05-10T11:06:31;32.10;;;22.57;;
2406;SDS011;37709;53.480;9.688;2023-05-10T11:09:06;34.30;;;24.13;;
2406;SDS011;37709;53.480;9.688;2023-05-10T11:11:48;31.73;;;22.67;;
2406;SDS011;37709;53.480;9.688;2023-05-10T11:14:21;35.00;;;24.60;;
2406;SDS011;37709;53.480;9.688;2023-05-10T11:16:51;28.73;;;21.17;;
2406;SDS011;37709;53.480;9.688;2023-05-10T11:19:19;35.90;;;23.97;;
2406;SDS011;37709;53.480;9.688;2023-05-10T11:24:18;36.27;;;24.97;;
2406;SDS011;37709;53.480;9.688;2023-05-10T11:26:49;36.47;;;25.77;;
2406;SDS011;37709;53.480;9.688;2023-05-10T11:29:20;51.00;;;30.13;;
2406;SDS011;37709;53.480;9.688;2023-05-10T11:31:47;29.27;;;23.40;;
2406;SDS011;37709;53.480;9.688;2023-05-10T11:34:25;27.23;;;23.17;;
2406;SDS011;37709;53.480;9.688;2023-05-10T11:36:55;32.60;;;24.27;;
2406;SDS011;37709;53.480;9.688;2023-05-10T11:39:26;34.93;;;24.80;;
2406;SDS011;37709;53.480;9.688;2023-05-10T11:41:55;33.77;;;25.40;;
2406;SDS011;37709;53.480;9.688;2023-05-10T11:44:23;30.20;;;22.63;;
2406;SDS011;37709;53.480;9.688;2023-05-10T11:46:59;27.20;;;22.20;;
2406;SDS011;37709;53.480;9.688;2023-05-10T11:49:27;52.67;;;28.03;;
2406;SDS011;37709;53.480;9.688;2023-05-10T11:52:07;31.07;;;24.87;;
2406;SDS011;37709;53.480;9.688;2023-05-10T11:54:36;30.43;;;21.93;;
2406;SDS011;37709;53.480;9.688;2023-05-10T11:57:07;34.10;;;25.13;;
2406;SDS011;37709;53.480;9.688;2023-05-10T11:59:36;38.00;;;24.67;;
2406;SDS011;37709;53.480;9.688;2023-05-10T12:02:03;32.60;;;23.43;;
2406;SDS011;37709;53.480;9.688;2023-05-10T12:04:30;26.57;;;21.40;;
2406;SDS011;37709;53.480;9.688;2023-05-10T12:06:58;32.60;;;24.00;;
2406;SDS011;37709;53.480;9.688;2023-05-10T12:09:26;29.17;;;22.30;;
2406;SDS011;37709;53.480;9.688;2023-05-10T12:11:56;27.43;;;21.13;;
2406;SDS011;37709;53.480;9.688;2023-05-10T12:14:25;28.63;;;22.30;;
2406;SDS011;37709;53.480;9.688;2023-05-10T12:16:52;29.60;;;22.23;;
2406;SDS011;37709;53.480;9.688;2023-05-10T12:19:20;28.07;;;21.13;;
2406;SDS011;37709;53.480;9.688;2023-05-10T12:21:47;20.83;;;17.17;;
2406;SDS011;37709;53.480;9.688;2023-05-10T12:24:15;26.73;;;21.07;;
2406;SDS011;37709;53.480;9.688;2023-05-10T12:26:47;30.53;;;22.47;;
2406;SDS011;37709;53.480;9.688;2023-05-10T12:29:15;24.90;;;21.13;;
2406;SDS011;37709;53.480;9.688;2023-05-10T12:31:54;24.40;;;21.70;;
2406;SDS011;37709;53.480;9.688;2023-05-10T12:34:33;20.57;;;18.37;;
2406;SDS011;37709;53.480;9.688;2023-05-10T12:37:02;21.50;;;19.57;;
2406;SDS011;37709;53.480;9.688;2023-05-10T12:39:43;20.87;;;18.80;;
2406;SDS011;37709;53.480;9.688;2023-05-10T12:42:12;20.57;;;18.57;;
2406;SDS011;37709;53.480;9.688;2023-05-10T12:44:39;17.97;;;16.37;;
2406;SDS011;37709;53.480;9.688;2023-05-10T12:47:06;18.87;;;17.17;;
2406;SDS011;37709;53.480;9.688;2023-05-10T12:49:34;17.60;;;16.00;;
2406;SDS011;37709;53.480;9.688;2023-05-10T12:52:02;17.90;;;16.00;;
2406;SDS011;37709;53.480;9.688;2023-05-10T12:54:29;17.63;;;16.03;;
2406;SDS011;37709;53.480;9.688;2023-05-10T12:56:56;15.83;;;14.53;;
2406;SDS011;37709;53.480;9.688;2023-05-10T12:59:24;17.23;;;15.67;;
2406;SDS011;37709;53.480;9.688;2023-05-10T13:01:51;16.40;;;14.90;;
2406;SDS011;37709;53.480;9.688;2023-05-10T13:04:19;15.97;;;14.57;;
2406;SDS011;37709;53.480;9.688;2023-05-10T13:06:46;15.87;;;14.57;;
2406;SDS011;37709;53.480;9.688;2023-05-10T13:09:14;16.87;;;15.47;;
2406;SDS011;37709;53.480;9.688;2023-05-10T13:11:42;17.13;;;15.73;;
2406;SDS011;37709;53.480;9.688;2023-05-10T13:14:09;16.87;;;15.47;;
2406;SDS011;37709;53.480;9.688;2023-05-10T13:16:36;15.10;;;13.80;;
2406;SDS011;37709;53.480;9.688;2023-05-10T13:19:04;15.97;;;14.67;;
2406;SDS011;37709;53.480;9.688;2023-05-10T13:21:31;16.20;;;15.00;;
2406;SDS011;37709;53.480;9.688;2023-05-10T13:23:59;15.17;;;13.87;;
2406;SDS011;37709;53.480;9.688;2023-05-10T13:26:27;16.13;;;14.73;;
2406;SDS011;37709;53.480;9.688;2023-05-10T13:28:54;14.50;;;13.37;;
2406;SDS011;37709;53.480;9.688;2023-05-10T13:31:23;14.10;;;13.00;;
2406;SDS011;37709;53.480;9.688;2023-05-10T13:33:50;12.73;;;11.63;;
2406;SDS011;37709;53.480;9.688;2023-05-10T13:36:17;13.60;;;12.50;;
2406;SDS011;37709;53.480;9.688;2023-05-10T13:38:45;12.23;;;11.03;;
2406;SDS011;37709;53.480;9.688;2023-05-10T13:41:12;11.40;;;10.50;;
2406;SDS011;37709;53.480;9.688;2023-05-10T13:43:40;11.60;;;10.70;;
2406;SDS011;37709;53.480;9.688;2023-05-10T13:46:07;10.73;;;9.83;;
2406;SDS011;37709;53.480;9.688;2023-05-10T13:48:35;10.53;;;9.73;;
2406;SDS011;37709;53.480;9.688;2023-05-10T13:51:05;9.33;;;8.53;;
2406;SDS011;37709;53.480;9.688;2023-05-10T13:53:32;9.57;;;8.77;;
2406;SDS011;37709;53.480;9.688;2023-05-10T13:55:59;9.37;;;8.57;;
2406;SDS011;37709;53.480;9.688;2023-05-10T13:58:27;8.60;;;8.00;;
2406;SDS011;37709;53.480;9.688;2023-05-10T14:00:55;9.07;;;8.27;;
2406;SDS011;37709;53.480;9.688;2023-05-10T14:03:22;8.60;;;8.00;;
2406;SDS011;37709;53.480;9.688;2023-05-10T14:05:50;7.50;;;6.90;;
2406;SDS011;37709;53.480;9.688;2023-05-10T14:08:17;7.13;;;6.53;;
2406;SDS011;37709;53.480;9.688;2023-05-10T14:10:44;6.90;;;6.40;;
2406;SDS011;37709;53.480;9.688;2023-05-10T14:13:12;6.83;;;6.33;;
2406;SDS011;37709;53.480;9.688;2023-05-10T14:15:39;6.87;;;6.37;;
2406;SDS011;37709;53.480;9.688;2023-05-10T14:18:06;7.17;;;6.63;;
2406;SDS011;37709;53.480;9.688;2023-05-10T14:20:33;6.83;;;6.33;;
2406;SDS011;37709;53.480;9.688;2023-05-10T14:23:01;6.10;;;5.60;;
2406;SDS011;37709;53.480;9.688;2023-05-10T14:25:28;6.87;;;6.37;;
2406;SDS011;37709;53.480;9.688;2023-05-10T14:27:55;7.20;;;6.70;;
2406;SDS011;37709;53.480;9.688;2023-05-10T14:30:22;6.57;;;6.07;;
2406;SDS011;37709;53.480;9.688;2023-05-10T14:32:50;6.83;;;6.30;;
2406;SDS011;37709;53.480;9.688;2023-05-10T14:35:17;7.63;;;7.13;;
2406;SDS011;37709;53.480;9.688;2023-05-10T14:37:45;7.17;;;6.47;;
2406;SDS011;37709;53.480;9.688;2023-05-10T14:40:13;7.20;;;6.70;;
2406;SDS011;37709;53.480;9.688;2023-05-10T14:42:42;6.83;;;6.27;;
2406;SDS011;37709;53.480;9.688;2023-05-10T14:45:10;9.17;;;8.47;;
2406;SDS011;37709;53.480;9.688;2023-05-10T14:47:38;9.23;;;8.33;;
2406;SDS011;37709;53.480;9.688;2023-05-10T14:50:05;9.23;;;8.53;;
2406;SDS011;37709;53.480;9.688;2023-05-10T14:52:33;8.93;;;8.23;;
2406;SDS011;37709;53.480;9.688;2023-05-10T14:55:01;11.07;;;10.13;;
2406;SDS011;37709;53.480;9.688;2023-05-10T14:57:29;11.07;;;10.07;;
2406;SDS011;37709;53.480;9.688;2023-05-10T14:59:56;13.70;;;12.17;;
2406;SDS011;37709;53.480;9.688;2023-05-10T15:02:24;11.90;;;10.70;;
2406;SDS011;37709;53.480;9.688;2023-05-10T15:04:52;13.57;;;12.17;;
2406;SDS011;37709;53.480;9.688;2023-05-10T15:07:20;9.60;;;8.77;;
2406;SDS011;37709;53.480;9.688;2023-05-10T15:09:48;11.50;;;10.23;;
2406;SDS011;37709;53.480;9.688;2023-05-10T15:12:17;9.47;;;8.50;;
2406;SDS011;37709;53.480;9.688;2023-05-10T15:14:45;9.70;;;8.67;;
2406;SDS011;37709;53.480;9.688;2023-05-10T15:17:12;10.70;;;9.20;;
2406;SDS011;37709;53.480;9.688;2023-05-10T15:19:40;9.90;;;8.93;;
2406;SDS011;37709;53.480;9.688;2023-05-10T15:22:07;8.93;;;7.97;;
2406;SDS011;37709;53.480;9.688;2023-05-10T15:24:35;9.63;;;8.67;;
2406;SDS011;37709;53.480;9.688;2023-05-10T15:27:03;7.50;;;6.80;;